Time;durP1;ratioP1;P1;durP2;ratioP2;P2;SDS_P1;SDS_P2;PMS_P1;PMS_P2;Temp;Humidity;BMP_temperature;BMP_pressure;BME280_temperature;BME280_humidity;BME280_pressure;Samples;Min_cycle;Max_cycle;Signal;HPM_P1;HPM_P2
2023/09/03 00:00:40;;;;;;;1.90;0.88;;;13.80;99.90;;;;;;5102963;28;20035;-75
2023/09/03 00:03:06;;;;;;;2.22;1.20;;;13.70;99.90;;;;;;5102288;28;20278;-75
2023/09/03 00:05:33;;;;;;;2.17;1.00;;;13.70;99.90;;;;;;5083914;28;20258;-75
2023/09/03 00:07:58;;;;;;;1.80;0.80;;;13.70;99.90;;;;;;5102032;28;20170;-75
2023/09/03 00:10:24;;;;;;;2.08;0.93;;;13.70;99.90;;;;;;5104258;28;20035;-75
2023/09/03 00:12:50;;;;;;;1.38;0.65;;;13.70;99.90;;;;;;5103502;28;20035;-75
2023/09/03 00:15:21;;;;;;;1.55;0.70;;;13.70;99.90;;;;;;5121525;27;20032;-75
2023/09/03 00:17:47;;;;;;;4.95;0.82;;;13.60;99.90;;;;;;5084676;28;20061;-75
2023/09/03 00:20:13;;;;;;;3.17;1.30;;;13.60;99.90;;;;;;5102542;28;20048;-75
2023/09/03 00:22:39;;;;;;;1.60;0.90;;;13.60;99.90;;;;;;5100126;28;20047;-75
2023/09/03 00:25:06;;;;;;;1.77;0.73;;;13.60;99.90;;;;;;5104501;28;20036;-75
2023/09/03 00:27:32;;;;;;;2.33;0.52;;;13.50;99.90;;;;;;5101587;28;20122;-75
2023/09/03 00:29:57;;;;;;;1.85;0.73;;;13.50;99.90;;;;;;5101476;28;20554;-75
2023/09/03 00:32:23;;;;;;;1.83;0.90;;;13.50;99.90;;;;;;5103194;28;20035;-75
2023/09/03 00:34:48;;;;;;;1.15;0.68;;;13.50;99.90;;;;;;5103656;28;20052;-75
2023/09/03 00:37:14;;;;;;;5.20;0.93;;;13.50;99.90;;;;;;5081738;28;20039;-76
2023/09/03 00:39:40;;;;;;;1.63;0.73;;;13.40;99.90;;;;;;5105231;27;20441;-75
2023/09/03 00:42:05;;;;;;;0.90;0.50;;;13.40;99.90;;;;;;5109473;28;20062;-75
2023/09/03 00:44:31;;;;;;;1.60;0.80;;;13.40;99.90;;;;;;5108867;28;20158;-75
2023/09/03 00:46:57;;;;;;;1.38;0.60;;;13.40;99.90;;;;;;5108387;28;20503;-75
2023/09/03 00:49:24;;;;;;;1.10;0.55;;;13.40;99.90;;;;;;5091183;28;20388;-75
2023/09/03 00:51:52;;;;;;;1.40;0.68;;;13.30;99.90;;;;;;5102747;28;20093;-75
2023/09/03 00:54:21;;;;;;;1.30;0.70;;;13.30;99.90;;;;;;5099077;28;20036;-75
2023/09/03 00:56:49;;;;;;;2.45;1.10;;;13.20;99.90;;;;;;5083733;28;20051;-75
2023/09/03 00:59:17;;;;;;;4.50;1.70;;;13.30;99.90;;;;;;5085959;28;20053;-75
2023/09/03 01:01:43;;;;;;;5.97;2.30;;;13.30;99.90;;;;;;5104452;28;20044;-75
2023/09/03 01:04:10;;;;;;;4.40;1.98;;;13.30;99.90;;;;;;5102150;28;20126;-75
2023/09/03 01:06:35;;;;;;;3.40;1.65;;;13.30;99.90;;;;;;5102480;28;20051;-75
2023/09/03 01:09:01;;;;;;;8.77;2.65;;;13.30;99.90;;;;;;5104272;28;20088;-75
2023/09/03 01:11:41;;;;;;;3.20;1.30;;;13.30;99.90;;;;;;5104588;28;20646;-75
2023/09/03 01:14:20;;;;;;;2.25;0.98;;;13.30;99.90;;;;;;5119150;28;20130;-75
2023/09/03 01:16:56;;;;;;;2.50;1.00;;;13.30;99.90;;;;;;5103762;28;20515;-75
2023/09/03 01:19:54;;;;;;;2.03;1.13;;;13.30;99.90;;;;;;5103167;28;20505;-75
2023/09/03 01:22:44;;;;;;;4.28;1.70;;;13.30;99.90;;;;;;5083619;28;20051;-75
2023/09/03 01:25:30;;;;;;;4.18;1.88;;;13.20;99.90;;;;;;5102119;28;20080;-75
2023/09/03 01:28:15;;;;;;;2.78;1.38;;;13.20;99.90;;;;;;5103836;28;20036;-75
2023/09/03 01:30:41;;;;;;;2.90;1.40;;;13.10;99.90;;;;;;5100919;28;20059;-75
2023/09/03 01:33:07;;;;;;;2.53;1.33;;;13.10;99.90;;;;;;5100947;28;20047;-75
2023/09/03 01:35:34;;;;;;;2.90;1.42;;;13.10;99.90;;;;;;5102888;28;20569;-75
2023/09/03 01:38:00;;;;;;;3.00;1.20;;;13.10;99.90;;;;;;5104911;27;20411;-76
2023/09/03 01:40:25;;;;;;;3.13;1.50;;;13.10;99.90;;;;;;5086361;28;20104;-75
2023/09/03 01:42:51;;;;;;;2.95;1.40;;;13.00;99.90;;;;;;5106817;28;20047;-75
2023/09/03 01:45:16;;;;;;;2.80;1.30;;;13.00;99.90;;;;;;5107564;28;20092;-75
2023/09/03 01:47:50;;;;;;;4.32;1.45;;;13.00;99.90;;;;;;5091324;28;20044;-75
2023/09/03 01:50:34;;;;;;;2.85;1.40;;;13.00;99.90;;;;;;5097490;28;20046;-75
2023/09/03 01:53:14;;;;;;;3.75;1.60;;;13.00;99.90;;;;;;5104738;28;20127;-76
2023/09/03 01:55:44;;;;;;;4.55;1.98;;;13.00;99.90;;;;;;5106727;28;20114;-75
2023/09/03 01:58:10;;;;;;;3.75;1.60;;;13.00;99.90;;;;;;5106043;28;20039;-75
2023/09/03 02:00:37;;;;;;;3.45;1.50;;;13.00;99.90;;;;;;5105262;28;20509;-75
2023/09/03 02:03:04;;;;;;;4.05;1.80;;;13.00;99.90;;;;;;5104956;28;20122;-75
2023/09/03 02:05:29;;;;;;;6.25;2.33;;;13.00;99.90;;;;;;5103775;28;20088;-75
2023/09/03 02:07:55;;;;;;;5.97;2.55;;;13.00;99.90;;;;;;5105993;28;20039;-75
2023/09/03 02:10:20;;;;;;;6.13;1.80;;;13.00;99.90;;;;;;5106681;28;20039;-75
2023/09/03 02:12:46;;;;;;;4.45;2.03;;;13.00;99.90;;;;;;5106209;28;20481;-75
2023/09/03 02:15:12;;;;;;;4.35;2.03;;;12.90;99.90;;;;;;5108209;28;20035;-75
2023/09/03 02:17:37;;;;;;;5.10;2.22;;;13.00;99.90;;;;;;5106063;28;20146;-75
2023/09/03 02:20:03;;;;;;;6.40;2.55;;;13.00;99.90;;;;;;5105738;28;20127;-75
2023/09/03 02:22:29;;;;;;;5.22;2.40;;;12.90;99.90;;;;;;5102644;28;20046;-76
2023/09/03 02:24:54;;;;;;;5.32;2.42;;;12.90;99.90;;;;;;5106348;28;20044;-75
2023/09/03 02:27:20;;;;;;;5.45;2.90;;;12.90;99.90;;;;;;5103474;27;20313;-75
2023/09/03 02:29:46;;;;;;;5.05;2.38;;;12.90;99.90;;;;;;5108125;28;20085;-75
2023/09/03 02:32:11;;;;;;;4.93;1.90;;;12.90;99.90;;;;;;5106699;28;20038;-75
2023/09/03 02:34:37;;;;;;;6.72;2.28;;;12.90;99.90;;;;;;5106260;28;20415;-75
2023/09/03 02:37:03;;;;;;;4.35;1.80;;;12.90;99.90;;;;;;5106281;28;20553;-75
2023/09/03 02:39:35;;;;;;;4.93;1.85;;;12.90;99.90;;;;;;5105667;28;20080;-75
2023/09/03 02:42:02;;;;;;;4.88;2.05;;;12.80;99.90;;;;;;5101213;28;20084;-76
2023/09/03 02:44:28;;;;;;;4.80;2.13;;;12.80;99.90;;;;;;5104201;28;20111;-75
2023/09/03 02:46:53;;;;;;;7.80;2.63;;;12.80;99.90;;;;;;5105865;28;20583;-75
2023/09/03 02:49:20;;;;;;;4.65;1.80;;;12.80;99.90;;;;;;5104289;27;20036;-75
2023/09/03 02:51:46;;;;;;;2.58;1.48;;;12.80;99.90;;;;;;5105925;28;20040;-75
2023/09/03 02:54:11;;;;;;;3.67;1.95;;;12.80;99.90;;;;;;5104498;28;20050;-75
2023/09/03 02:56:37;;;;;;;5.55;2.55;;;12.70;99.90;;;;;;5087843;28;20043;-75
2023/09/03 02:59:02;;;;;;;2.88;1.65;;;12.70;99.90;;;;;;5098515;28;20040;-76
2023/09/03 03:01:28;;;;;;;4.55;2.08;;;12.70;99.90;;;;;;5103793;27;20063;-75
2023/09/03 03:03:53;;;;;;;4.90;2.00;;;12.70;99.90;;;;;;5105676;28;20032;-75
2023/09/03 03:06:19;;;;;;;6.10;2.13;;;12.70;99.90;;;;;;5104732;27;20508;-75
2023/09/03 03:08:44;;;;;;;5.18;2.25;;;12.70;99.90;;;;;;5085075;28;20512;-75
2023/09/03 03:11:15;;;;;;;4.15;1.83;;;12.70;99.90;;;;;;5105719;28;20027;-75
2023/09/03 03:13:42;;;;;;;4.32;2.10;;;12.70;99.90;;;;;;5104491;28;20130;-75
2023/09/03 03:16:13;;;;;;;4.40;1.73;;;12.70;99.90;;;;;;5107513;28;20522;-75
2023/09/03 03:18:42;;;;;;;3.70;1.75;;;12.60;99.90;;;;;;5099769;27;20032;-75
2023/09/03 03:21:18;;;;;;;4.25;1.80;;;12.60;99.90;;;;;;5102334;28;20138;-75
2023/09/03 03:23:47;;;;;;;4.43;1.92;;;12.60;99.90;;;;;;5105244;27;20028;-75
2023/09/03 03:26:13;;;;;;;6.68;1.88;;;12.60;99.90;;;;;;5104763;28;20047;-75
2023/09/03 03:28:38;;;;;;;7.30;2.17;;;12.60;99.90;;;;;;5104529;28;20096;-75
2023/09/03 03:31:11;;;;;;;8.25;2.97;;;12.60;99.90;;;;;;5081191;28;20040;-76
2023/09/03 03:33:37;;;;;;;5.38;2.50;;;12.50;99.90;;;;;;5103690;28;20393;-76
2023/09/03 03:36:04;;;;;;;7.03;2.40;;;12.50;99.90;;;;;;5105403;28;20492;-75
2023/09/03 03:38:29;;;;;;;4.80;2.22;;;12.50;99.90;;;;;;5119156;27;20044;-75
2023/09/03 03:41:07;;;;;;;8.00;2.40;;;12.50;99.90;;;;;;5104405;28;20042;-75
2023/09/03 03:43:34;;;;;;;3.90;2.10;;;12.50;99.90;;;;;;5085400;28;20050;-75
2023/09/03 03:45:59;;;;;;;4.00;1.90;;;12.50;99.90;;;;;;5087125;28;20161;-76
2023/09/03 03:48:25;;;;;;;4.30;1.92;;;12.50;99.90;;;;;;5112264;27;20516;-76
2023/09/03 03:50:56;;;;;;;4.28;1.88;;;12.50;99.90;;;;;;5101901;28;20472;-75
2023/09/03 03:53:22;;;;;;;4.88;2.20;;;12.50;99.90;;;;;;5087721;28;20055;-75
2023/09/03 03:55:59;;;;;;;4.82;2.13;;;12.40;99.90;;;;;;5086785;28;20513;-75
2023/09/03 03:58:27;;;;;;;4.70;2.17;;;12.40;99.90;;;;;;5102167;27;20047;-75
2023/09/03 04:00:52;;;;;;;4.90;2.20;;;12.40;99.90;;;;;;5099744;28;20110;-75
2023/09/03 04:03:18;;;;;;;3.85;2.00;;;12.40;99.90;;;;;;5106105;28;20542;-76
2023/09/03 04:05:43;;;;;;;5.70;2.17;;;12.40;99.90;;;;;;5085371;28;20042;-75
2023/09/03 04:08:09;;;;;;;6.53;2.25;;;12.30;99.90;;;;;;5103410;27;20035;-75
2023/09/03 04:10:34;;;;;;;5.53;2.25;;;12.30;99.90;;;;;;5102598;28;20051;-75
2023/09/03 04:13:00;;;;;;;5.10;2.45;;;12.30;99.90;;;;;;5105010;28;20115;-76
2023/09/03 04:15:25;;;;;;;4.80;2.42;;;12.30;99.90;;;;;;5105589;28;20035;-75
2023/09/03 04:17:51;;;;;;;5.80;2.17;;;12.30;99.90;;;;;;5104649;28;20046;-75
2023/09/03 04:20:17;;;;;;;5.80;2.58;;;12.30;99.90;;;;;;5067442;28;20062;-76
2023/09/03 04:22:42;;;;;;;5.53;2.25;;;12.30;99.90;;;;;;5104668;28;20118;-76
2023/09/03 04:25:08;;;;;;;4.65;2.40;;;12.30;99.90;;;;;;5086113;28;20039;-75
2023/09/03 04:27:33;;;;;;;7.43;2.55;;;12.30;99.90;;;;;;5104747;28;20036;-75
2023/09/03 04:29:59;;;;;;;5.00;2.30;;;12.30;99.90;;;;;;5084089;28;20035;-75
2023/09/03 04:32:25;;;;;;;3.92;1.95;;;12.30;99.90;;;;;;5101306;28;20028;-75
2023/09/03 04:34:51;;;;;;;5.20;2.30;;;12.20;99.90;;;;;;5084459;28;20236;-75
2023/09/03 04:37:17;;;;;;;8.43;2.05;;;12.20;99.90;;;;;;5104044;28;20478;-75
2023/09/03 04:39:42;;;;;;;4.45;2.00;;;12.20;99.90;;;;;;5103022;28;20043;-76
2023/09/03 04:42:08;;;;;;;4.47;1.83;;;12.20;99.90;;;;;;5102165;28;20040;-76
2023/09/03 04:44:37;;;;;;;4.78;1.73;;;12.20;99.90;;;;;;5104173;28;20123;-75
2023/09/03 04:47:04;;;;;;;4.97;1.98;;;12.20;99.90;;;;;;5103997;28;20035;-76
2023/09/03 04:49:29;;;;;;;4.88;2.20;;;12.20;99.90;;;;;;5104552;28;20525;-76
2023/09/03 04:51:55;;;;;;;4.70;2.35;;;12.10;99.90;;;;;;5080304;28;20108;-76
2023/09/03 04:54:21;;;;;;;6.35;2.05;;;12.10;99.90;;;;;;5104305;28;20035;-76
2023/09/03 04:56:47;;;;;;;5.50;2.10;;;12.10;99.90;;;;;;5103233;28;20046;-76
2023/09/03 04:59:12;;;;;;;5.30;2.33;;;12.10;99.90;;;;;;5101956;28;20491;-75
2023/09/03 05:01:38;;;;;;;4.82;2.25;;;12.10;99.90;;;;;;5101728;28;20067;-76
2023/09/03 05:04:05;;;;;;;5.05;2.05;;;12.10;99.90;;;;;;5102351;28;20173;-76
2023/09/03 05:06:30;;;;;;;4.35;1.80;;;12.10;99.90;;;;;;5103550;28;20107;-76
2023/09/03 05:08:56;;;;;;;3.72;1.50;;;12.10;99.90;;;;;;5101847;28;20165;-76
2023/09/03 05:11:21;;;;;;;3.15;1.73;;;12.10;99.90;;;;;;5105021;28;20031;-76
2023/09/03 05:13:47;;;;;;;4.95;2.00;;;12.10;99.90;;;;;;5107677;28;20039;-76
2023/09/03 05:16:12;;;;;;;5.28;2.25;;;12.10;99.90;;;;;;5108605;28;20027;-76
2023/09/03 05:18:38;;;;;;;5.70;2.25;;;12.10;99.90;;;;;;5071074;28;20038;-76
2023/09/03 05:21:08;;;;;;;5.35;2.35;;;12.10;99.90;;;;;;5107485;28;20089;-76
2023/09/03 05:23:34;;;;;;;5.07;2.05;;;12.10;99.90;;;;;;5104883;28;20028;-76
2023/09/03 05:26:00;;;;;;;3.40;1.80;;;12.10;99.90;;;;;;5102697;28;20031;-75
2023/09/03 05:28:26;;;;;;;5.55;2.28;;;12.10;99.90;;;;;;5107613;28;20531;-76
2023/09/03 05:30:52;;;;;;;8.02;2.58;;;12.20;99.90;;;;;;5104486;28;20489;-76
2023/09/03 05:33:17;;;;;;;5.57;2.13;;;12.20;99.90;;;;;;5107060;28;20036;-76
2023/09/03 05:35:43;;;;;;;5.85;2.22;;;12.20;99.90;;;;;;5089461;28;20428;-75
2023/09/03 05:38:08;;;;;;;6.63;2.80;;;12.20;99.90;;;;;;5111888;28;20035;-75
2023/09/03 05:40:34;;;;;;;5.63;2.30;;;12.20;99.90;;;;;;5107015;28;20044;-76
2023/09/03 05:43:00;;;;;;;5.57;2.10;;;12.20;99.90;;;;;;5107632;28;20039;-76
2023/09/03 05:45:25;;;;;;;5.00;2.35;;;12.20;99.90;;;;;;5106036;28;20036;-76
2023/09/03 05:47:51;;;;;;;3.70;1.90;;;12.20;99.90;;;;;;5112627;27;20535;-75
2023/09/03 05:50:16;;;;;;;4.07;2.22;;;12.20;99.90;;;;;;5108556;27;20040;-76
2023/09/03 05:52:42;;;;;;;4.82;2.70;;;12.30;99.90;;;;;;5105565;28;20036;-76
2023/09/03 05:55:08;;;;;;;6.07;2.72;;;12.30;99.90;;;;;;5103734;28;20043;-75
2023/09/03 05:57:34;;;;;;;4.30;2.03;;;12.30;99.90;;;;;;5105905;28;20176;-76
2023/09/03 06:00:00;;;;;;;4.53;2.15;;;12.30;99.90;;;;;;5106918;27;20409;-76
2023/09/03 06:02:25;;;;;;;4.20;2.25;;;12.40;99.90;;;;;;5088964;28;20147;-75
2023/09/03 06:04:52;;;;;;;4.68;2.20;;;12.40;99.90;;;;;;5085985;28;20036;-76
2023/09/03 06:07:18;;;;;;;3.95;2.03;;;12.50;99.90;;;;;;5088896;28;20115;-76
2023/09/03 06:09:44;;;;;;;4.13;1.98;;;12.50;99.90;;;;;;5107421;28;20118;-75
2023/09/03 06:12:10;;;;;;;3.70;1.80;;;12.50;99.90;;;;;;5106819;28;21789;-76
2023/09/03 06:14:36;;;;;;;5.07;2.40;;;12.60;99.90;;;;;;5106565;28;20036;-75
2023/09/03 06:17:03;;;;;;;3.05;1.90;;;12.60;99.90;;;;;;5108420;28;20054;-76
2023/09/03 06:19:29;;;;;;;4.05;2.08;;;12.60;99.90;;;;;;5105166;28;20104;-75
2023/09/03 06:21:55;;;;;;;5.45;2.40;;;12.70;99.90;;;;;;5102800;28;20061;-76
2023/09/03 06:24:21;;;;;;;5.20;2.25;;;12.70;99.90;;;;;;5084251;28;20032;-76
2023/09/03 06:26:46;;;;;;;3.85;2.00;;;12.80;99.90;;;;;;5108382;28;20432;-76
2023/09/03 06:29:12;;;;;;;4.53;2.40;;;12.80;99.90;;;;;;5107446;28;20040;-76
2023/09/03 06:31:37;;;;;;;4.18;2.10;;;12.80;99.90;;;;;;5106136;28;20178;-76
2023/09/03 06:34:03;;;;;;;4.10;2.05;;;12.90;99.90;;;;;;5088778;28;20046;-76
2023/09/03 06:36:29;;;;;;;4.10;2.08;;;12.90;99.90;;;;;;5102548;27;20039;-76
2023/09/03 06:38:54;;;;;;;5.03;2.40;;;13.00;99.90;;;;;;5106140;28;20100;-74
2023/09/03 06:41:20;;;;;;;4.82;2.22;;;13.10;99.90;;;;;;5105715;27;20035;-77
2023/09/03 06:43:46;;;;;;;5.28;2.75;;;13.10;99.90;;;;;;5105024;28;20600;-76
2023/09/03 06:46:12;;;;;;;4.93;2.38;;;13.20;99.90;;;;;;5102718;28;20421;-76
2023/09/03 06:48:37;;;;;;;4.28;2.53;;;13.20;99.90;;;;;;5103672;28;20047;-76
2023/09/03 06:51:04;;;;;;;4.65;2.17;;;13.30;99.90;;;;;;5097566;28;20130;-76
2023/09/03 06:53:29;;;;;;;3.92;2.10;;;13.30;99.90;;;;;;5083149;28;20115;-76
2023/09/03 06:55:57;;;;;;;4.65;2.33;;;13.30;99.90;;;;;;5100006;28;20446;-76
2023/09/03 06:58:22;;;;;;;3.83;2.10;;;13.40;99.90;;;;;;5099925;28;20047;-76
2023/09/03 07:00:48;;;;;;;4.75;2.20;;;13.40;99.90;;;;;;5097435;27;20095;-76
2023/09/03 07:03:14;;;;;;;4.63;2.42;;;13.50;99.90;;;;;;5100938;28;20089;-76
2023/09/03 07:05:40;;;;;;;5.25;2.33;;;13.50;99.90;;;;;;5099992;28;20046;-76
2023/09/03 07:08:06;;;;;;;4.53;2.30;;;13.60;99.90;;;;;;5098485;28;20447;-76
2023/09/03 07:10:33;;;;;;;5.47;2.00;;;13.60;99.90;;;;;;5100451;28;20032;-76
2023/09/03 07:12:59;;;;;;;4.82;2.50;;;13.70;99.90;;;;;;5085399;28;20076;-76
2023/09/03 07:15:25;;;;;;;5.78;2.67;;;13.70;99.90;;;;;;5102913;28;20035;-76
2023/09/03 07:17:50;;;;;;;5.88;2.40;;;13.80;99.90;;;;;;5101342;28;20028;-76
2023/09/03 07:20:16;;;;;;;4.20;2.17;;;13.80;99.90;;;;;;5098651;28;20052;-76
2023/09/03 07:22:41;;;;;;;4.65;2.25;;;13.90;99.90;;;;;;5099701;28;20039;-76
2023/09/03 07:25:09;;;;;;;3.10;1.75;;;13.90;99.90;;;;;;5101895;28;20401;-76
2023/09/03 07:27:35;;;;;;;5.95;2.30;;;13.90;99.90;;;;;;5102378;28;20071;-77
2023/09/03 07:30:02;;;;;;;5.03;1.98;;;14.00;99.90;;;;;;5098270;28;20497;-76
2023/09/03 07:32:27;;;;;;;8.35;1.90;;;14.10;99.90;;;;;;5100444;27;21842;-76
2023/09/03 07:34:53;;;;;;;3.35;1.60;;;14.10;99.90;;;;;;5098878;27;20043;-75
2023/09/03 07:37:19;;;;;;;3.08;1.77;;;14.10;99.90;;;;;;5103571;28;20031;-75
2023/09/03 07:39:45;;;;;;;3.03;1.83;;;14.20;99.90;;;;;;5103260;28;20558;-76
2023/09/03 07:42:11;;;;;;;2.40;1.40;;;14.30;99.90;;;;;;5070654;28;20051;-76
2023/09/03 07:44:37;;;;;;;3.60;1.58;;;14.40;99.90;;;;;;5100495;27;20050;-76
2023/09/03 07:47:02;;;;;;;3.10;1.50;;;14.50;99.90;;;;;;5100272;28;20038;-76
2023/09/03 07:49:28;;;;;;;3.28;1.52;;;14.50;99.90;;;;;;5096777;28;20565;-76
2023/09/03 07:51:54;;;;;;;3.17;1.38;;;14.60;99.90;;;;;;5098402;28;20036;-76
2023/09/03 07:54:19;;;;;;;3.10;1.20;;;14.70;99.90;;;;;;5100112;28;20055;-76
2023/09/03 07:56:45;;;;;;;2.10;1.20;;;14.70;99.90;;;;;;5098098;28;20514;-75
2023/09/03 07:59:11;;;;;;;2.20;1.10;;;14.80;99.90;;;;;;5100110;28;20110;-76
2023/09/03 08:01:36;;;;;;;2.97;1.38;;;14.90;99.90;;;;;;5100132;28;20039;-76
2023/09/03 08:04:03;;;;;;;3.03;1.05;;;15.00;99.90;;;;;;5102941;28;20038;-76
2023/09/03 08:06:29;;;;;;;2.05;1.20;;;15.00;99.90;;;;;;5073478;28;20043;-76
2023/09/03 08:08:55;;;;;;;2.35;1.30;;;15.00;99.90;;;;;;5103480;28;20531;-76
2023/09/03 08:11:21;;;;;;;3.33;1.10;;;15.00;99.90;;;;;;5080119;28;20392;-76
2023/09/03 08:13:51;;;;;;;2.38;1.35;;;15.10;99.90;;;;;;5100990;28;20541;-76
2023/09/03 08:16:17;;;;;;;2.47;1.33;;;15.10;99.90;;;;;;5094666;28;20762;-76
2023/09/03 08:18:43;;;;;;;2.78;1.02;;;15.20;99.90;;;;;;5100690;28;20074;-76
2023/09/03 08:21:08;;;;;;;2.38;1.13;;;15.30;99.90;;;;;;5098288;28;20047;-75
2023/09/03 08:23:34;;;;;;;2.83;1.35;;;15.30;99.90;;;;;;5099775;28;20061;-76
2023/09/03 08:25:59;;;;;;;3.30;1.50;;;15.40;99.90;;;;;;5083708;28;20035;-76
2023/09/03 08:28:25;;;;;;;2.25;1.35;;;15.50;99.90;;;;;;5099517;28;20038;-75
2023/09/03 08:30:50;;;;;;;2.67;1.50;;;15.60;99.90;;;;;;5100864;28;20031;-75
2023/09/03 08:33:16;;;;;;;2.78;1.30;;;15.60;99.90;;;;;;5104240;28;20042;-76
2023/09/03 08:35:42;;;;;;;2.75;1.35;;;15.60;99.90;;;;;;5098608;28;20031;-75
2023/09/03 08:38:07;;;;;;;2.63;1.25;;;15.60;99.90;;;;;;5064809;28;20180;-76
2023/09/03 08:40:33;;;;;;;3.13;1.30;;;15.60;99.90;;;;;;5103115;28;20032;-76
2023/09/03 08:43:01;;;;;;;2.30;1.10;;;15.70;99.90;;;;;;5082906;28;20392;-76
2023/09/03 08:45:30;;;;;;;4.05;1.30;;;15.70;99.90;;;;;;5101341;28;20043;-76
2023/09/03 08:47:56;;;;;;;4.00;1.27;;;15.80;99.90;;;;;;5106359;28;20509;-76
2023/09/03 08:50:23;;;;;;;3.55;1.23;;;15.80;99.90;;;;;;5088562;28;20536;-76
2023/09/03 08:52:49;;;;;;;2.20;1.00;;;15.90;99.90;;;;;;5104580;28;20078;-75
2023/09/03 08:55:14;;;;;;;3.25;1.40;;;15.90;99.90;;;;;;5105164;28;20038;-75
2023/09/03 08:57:41;;;;;;;2.65;1.05;;;15.90;99.90;;;;;;5092931;28;20035;-75
2023/09/03 09:00:08;;;;;;;2.92;1.20;;;15.90;99.90;;;;;;5106951;28;20044;-76
2023/09/03 09:02:37;;;;;;;3.08;1.38;;;15.90;99.90;;;;;;5104618;28;20044;-75
2023/09/03 09:05:09;;;;;;;3.88;1.33;;;16.00;99.90;;;;;;5105458;28;20114;-75
2023/09/03 09:07:34;;;;;;;5.00;1.48;;;16.00;99.90;;;;;;5106146;28;20545;-76
2023/09/03 09:10:06;;;;;;;2.67;1.20;;;16.00;99.90;;;;;;5107527;28;20035;-75
2023/09/03 09:12:56;;;;;;;2.50;1.10;;;16.00;99.90;;;;;;5107887;28;20032;-75
2023/09/03 09:15:21;;;;;;;4.65;1.15;;;16.10;99.90;;;;;;5105638;28;20160;-75
2023/09/03 09:17:48;;;;;;;2.88;1.30;;;16.20;99.90;;;;;;5111657;27;20039;-75
2023/09/03 09:20:14;;;;;;;3.15;1.42;;;16.20;99.90;;;;;;5103304;28;20585;-75
2023/09/03 09:22:40;;;;;;;2.53;1.20;;;16.30;99.90;;;;;;5107487;28;20047;-75
2023/09/03 09:25:07;;;;;;;3.28;1.00;;;16.30;99.90;;;;;;5103211;28;20040;-75
2023/09/03 09:27:37;;;;;;;6.22;1.05;;;16.40;99.90;;;;;;5102600;28;20261;-76
2023/09/03 09:30:11;;;;;;;3.00;1.40;;;16.40;99.90;;;;;;5110942;28;20071;-75
2023/09/03 09:32:36;;;;;;;2.03;0.90;;;16.50;99.90;;;;;;5107475;28;20062;-75
2023/09/03 09:35:02;;;;;;;3.42;0.90;;;16.50;99.90;;;;;;5108111;28;20401;-75
2023/09/03 09:37:41;;;;;;;4.25;1.40;;;16.50;99.90;;;;;;5106217;28;20672;-75
2023/09/03 09:40:08;;;;;;;2.15;1.10;;;16.50;99.90;;;;;;5087406;28;20132;-76
2023/09/03 09:42:36;;;;;;;1.63;1.02;;;16.50;99.90;;;;;;5103583;28;20130;-75
2023/09/03 09:45:02;;;;;;;2.22;0.77;;;16.60;99.90;;;;;;5103513;28;20495;-75
2023/09/03 09:47:28;;;;;;;3.28;1.02;;;16.50;99.90;;;;;;5106421;28;20130;-75
2023/09/03 09:49:54;;;;;;;3.63;1.10;;;16.60;99.90;;;;;;5102442;28;20066;-76
2023/09/03 09:52:21;;;;;;;2.13;0.70;;;16.60;99.90;;;;;;5103874;28;20039;-76
2023/09/03 09:54:48;;;;;;;2.22;1.08;;;16.60;99.90;;;;;;5105820;28;21037;-75
2023/09/03 09:57:31;;;;;;;1.88;1.23;;;16.60;99.90;;;;;;5102696;28;20545;-75
2023/09/03 10:00:04;;;;;;;4.00;1.30;;;16.60;99.90;;;;;;5104204;28;20058;-75
2023/09/03 10:02:30;;;;;;;3.10;1.40;;;16.60;99.90;;;;;;5103845;28;20095;-76
2023/09/03 10:04:56;;;;;;;2.42;1.10;;;16.60;99.90;;;;;;5103280;28;20031;-76
2023/09/03 10:07:22;;;;;;;1.67;0.93;;;16.60;99.90;;;;;;5105468;28;20814;-76
2023/09/03 10:09:48;;;;;;;2.75;0.95;;;16.70;99.90;;;;;;5100323;28;20142;-75
2023/09/03 10:12:13;;;;;;;1.98;0.95;;;16.70;99.90;;;;;;5105569;28;20540;-75
2023/09/03 10:14:40;;;;;;;2.20;1.17;;;16.70;99.90;;;;;;5105622;28;20032;-74
2023/09/03 10:17:07;;;;;;;2.20;1.00;;;16.70;99.90;;;;;;5086775;28;20028;-75
2023/09/03 10:19:50;;;;;;;2.33;0.90;;;16.70;99.90;;;;;;5088389;28;20043;-75
2023/09/03 10:22:18;;;;;;;2.63;0.95;;;16.80;99.90;;;;;;5104673;28;20046;-76
2023/09/03 10:24:54;;;;;;;2.08;1.20;;;16.80;99.90;;;;;;5107654;28;20086;-80
2023/09/03 10:27:25;;;;;;;2.55;1.13;;;16.90;99.90;;;;;;5103623;28;20039;-77
2023/09/03 10:29:53;;;;;;;2.85;1.20;;;16.90;99.90;;;;;;5107068;28;20089;-77
2023/09/03 10:32:21;;;;;;;3.92;0.98;;;17.00;99.90;;;;;;5105451;28;20032;-78
2023/09/03 10:34:47;;;;;;;2.40;1.10;;;17.00;99.90;;;;;;5088718;28;20039;-77
2023/09/03 10:37:16;;;;;;;1.80;0.73;;;17.00;99.90;;;;;;5101873;27;20035;-76
2023/09/03 10:39:46;;;;;;;2.38;1.25;;;17.00;99.90;;;;;;5104533;28;20563;-75
2023/09/03 10:42:23;;;;;;;4.07;1.10;;;17.10;99.90;;;;;;5104366;28;20418;-76
2023/09/03 10:44:54;;;;;;;2.47;1.20;;;17.10;99.90;;;;;;5105624;28;20042;-75
2023/09/03 10:47:19;;;;;;;2.22;1.05;;;17.10;99.90;;;;;;5105251;27;20039;-76
2023/09/03 10:49:50;;;;;;;2.25;1.10;;;17.20;99.90;;;;;;5105340;28;20027;-75
2023/09/03 10:52:28;;;;;;;2.25;0.80;;;17.20;99.90;;;;;;5103221;28;20118;-75
2023/09/03 10:55:15;;;;;;;2.20;1.00;;;17.20;99.90;;;;;;5102238;28;20122;-75
2023/09/03 10:57:42;;;;;;;2.85;0.90;;;17.30;99.90;;;;;;5105718;28;20042;-75
2023/09/03 11:00:13;;;;;;;1.67;0.80;;;17.30;99.90;;;;;;5105450;28;20038;-75
2023/09/03 11:02:39;;;;;;;1.92;0.80;;;17.40;99.90;;;;;;5100490;28;20173;-75
2023/09/03 11:05:23;;;;;;;2.33;1.00;;;17.40;99.90;;;;;;5103763;28;20024;-75
2023/09/03 11:08:09;;;;;;;1.98;0.80;;;17.40;99.90;;;;;;5098599;28;20086;-78
2023/09/03 11:10:35;;;;;;;1.80;0.80;;;17.40;99.90;;;;;;5102568;28;20066;-76
2023/09/03 11:13:04;;;;;;;2.67;0.65;;;17.40;99.90;;;;;;5106686;28;20396;-74
2023/09/03 11:15:30;;;;;;;4.05;0.90;;;17.40;99.90;;;;;;5105274;28;20433;-77
2023/09/03 11:17:56;;;;;;;3.42;0.90;;;17.40;99.90;;;;;;5103240;28;20035;-76
2023/09/03 11:20:35;;;;;;;4.03;0.95;;;17.50;99.90;;;;;;5100894;28;20055;-74
2023/09/03 11:23:03;;;;;;;1.92;0.90;;;17.60;99.90;;;;;;5094940;28;20549;-75
2023/09/03 11:25:37;;;;;;;1.50;0.80;;;17.60;99.90;;;;;;5057451;28;20028;-75
2023/09/03 11:28:11;;;;;;;2.13;1.00;;;17.60;99.90;;;;;;5109956;28;20090;-75
2023/09/03 11:30:38;;;;;;;1.90;0.90;;;17.60;99.90;;;;;;5108135;28;20035;-75
2023/09/03 11:33:08;;;;;;;1.63;0.75;;;17.70;99.90;;;;;;5110734;28;20262;-75
2023/09/03 11:35:42;;;;;;;2.78;0.80;;;17.70;99.90;;;;;;5108658;28;20334;-75
2023/09/03 11:38:08;;;;;;;3.53;0.77;;;17.70;99.90;;;;;;5110438;28;20051;-74
2023/09/03 11:40:34;;;;;;;2.20;0.90;;;17.80;99.90;;;;;;5110458;28;20127;-74
2023/09/03 11:42:59;;;;;;;1.70;0.80;;;17.80;99.90;;;;;;5108541;28;20096;-74
2023/09/03 11:45:30;;;;;;;1.13;0.50;;;17.80;99.90;;;;;;5104984;28;20042;-74
2023/09/03 11:47:55;;;;;;;1.17;0.60;;;17.80;99.90;;;;;;5110331;28;20043;-74
2023/09/03 11:50:21;;;;;;;5.57;0.80;;;17.80;99.90;;;;;;5109518;28;20043;-74
2023/09/03 11:52:55;;;;;;;1.60;0.70;;;17.80;99.90;;;;;;5110352;28;20036;-74
2023/09/03 11:55:22;;;;;;;1.40;0.57;;;17.80;99.90;;;;;;5090890;28;20043;-74
2023/09/03 11:57:49;;;;;;;1.25;0.70;;;17.90;99.90;;;;;;5110342;28;20047;-75
2023/09/03 12:00:15;;;;;;;1.05;0.45;;;17.90;99.90;;;;;;5108576;28;20031;-74
2023/09/03 12:02:41;;;;;;;1.67;0.65;;;17.90;99.90;;;;;;5110045;28;20039;-74
2023/09/03 12:05:07;;;;;;;1.35;0.63;;;17.80;99.90;;;;;;5086532;28;20469;-74
2023/09/03 12:07:33;;;;;;;1.45;0.68;;;17.80;99.90;;;;;;5109862;28;20050;-74
2023/09/03 12:09:59;;;;;;;0.80;0.50;;;17.90;99.90;;;;;;5109609;28;20488;-74
2023/09/03 12:12:24;;;;;;;1.95;0.70;;;17.90;99.90;;;;;;5109962;28;20067;-74
2023/09/03 12:14:50;;;;;;;0.90;0.60;;;17.90;99.90;;;;;;5088939;28;20039;-74
2023/09/03 12:17:26;;;;;;;2.58;0.77;;;18.00;99.90;;;;;;5107548;28;20039;-74
2023/09/03 12:19:52;;;;;;;1.02;0.57;;;18.00;99.90;;;;;;5108117;28;20048;-74
2023/09/03 12:22:19;;;;;;;1.25;0.68;;;18.00;99.90;;;;;;5109830;28;20051;-74
2023/09/03 12:24:48;;;;;;;1.45;0.70;;;18.00;99.90;;;;;;5103819;28;20104;-74
2023/09/03 12:27:14;;;;;;;1.25;0.70;;;18.00;99.90;;;;;;5091085;28;20051;-74
2023/09/03 12:29:40;;;;;;;1.52;0.68;;;18.00;99.90;;;;;;5108947;28;20058;-74
2023/09/03 12:32:15;;;;;;;1.90;0.63;;;18.10;99.90;;;;;;5074505;28;20078;-74
2023/09/03 12:34:48;;;;;;;0.85;0.50;;;18.10;99.90;;;;;;5107390;28;20043;-74
2023/09/03 12:37:14;;;;;;;1.35;0.88;;;18.10;99.90;;;;;;5090668;28;20047;-74
2023/09/03 12:39:43;;;;;;;1.55;0.70;;;18.10;99.90;;;;;;5109977;28;20047;-74
2023/09/03 12:42:10;;;;;;;3.33;0.77;;;18.10;99.90;;;;;;5109792;28;20036;-75
2023/09/03 12:44:36;;;;;;;1.90;0.90;;;18.10;99.90;;;;;;5103403;28;20043;-74
2023/09/03 12:47:02;;;;;;;1.58;0.75;;;18.10;99.90;;;;;;5107185;28;20035;-74
2023/09/03 12:49:29;;;;;;;1.52;0.73;;;18.20;99.90;;;;;;5090693;28;20428;-74